Time;durP1;ratioP1;P1;durP2;ratioP2;P2;SDS_P1;SDS_P2;PMS_P1;PMS_P2;Temp;Humidity;BMP_temperature;BMP_pressure;BME280_temperature;BME280_humidity;BME280_pressure;Samples;Min_cycle;Max_cycle;Signal;HPM_P1;HPM_P2
2022/08/15 00:00:52;;;;;;;6.90;3.30;;;;;;;27.18;36.03;96455.50;5031264;28;20444;-70
2022/08/15 00:03:19;;;;;;;6.83;3.60;;;;;;;27.16;36.15;96450.38;5030837;28;20187;-69
2022/08/15 00:05:45;;;;;;;5.50;3.50;;;;;;;27.21;36.30;96447.66;5027501;28;20430;-69
2022/08/15 00:08:11;;;;;;;3.53;3.23;;;;;;;27.18;36.82;96452.78;5030073;28;20973;-70
2022/08/15 00:10:37;;;;;;;4.00;3.60;;;;;;;27.16;36.64;96438.81;5029513;28;20435;-68
2022/08/15 00:13:12;;;;;;;4.67;3.07;;;;;;;27.17;37.02;96437.75;5029876;28;20266;-68
2022/08/15 00:15:39;;;;;;;4.13;3.70;;;;;;;27.17;37.15;96427.78;5023843;28;20792;-69
2022/08/15 00:18:05;;;;;;;3.17;2.90;;;;;;;27.19;37.37;96427.53;5029977;28;20541;-68
2022/08/15 00:20:32;;;;;;;3.90;3.20;;;;;;;27.20;37.54;96418.38;5032739;28;20467;-68
2022/08/15 00:22:59;;;;;;;6.83;3.63;;;;;;;27.25;37.67;96421.84;5034414;28;20458;-70
2022/08/15 00:25:24;;;;;;;4.47;3.20;;;;;;;27.22;38.23;96427.75;5030324;28;20434;-69
2022/08/15 00:27:51;;;;;;;4.20;3.50;;;;;;;27.16;38.74;96436.94;5029810;28;20430;-68
2022/08/15 00:30:16;;;;;;;3.80;3.40;;;;;;;26.98;39.81;96455.31;5030408;28;20204;-70
2022/08/15 00:32:53;;;;;;;4.70;3.60;;;;;;;26.70;39.21;96461.31;5030524;28;20821;-67
2022/08/15 00:35:37;;;;;;;3.70;3.40;;;;;;;26.47;39.59;96458.97;5011275;28;20207;-65
2022/08/15 00:38:12;;;;;;;4.00;3.70;;;;;;;26.58;39.51;96456.28;5029526;28;20477;-66
2022/08/15 00:43:27;;;;;;;3.77;3.47;;;;;;;26.56;39.25;96461.09;5020716;28;20426;-67
2022/08/15 00:45:53;;;;;;;3.53;3.20;;;;;;;26.63;39.14;96464.28;5029391;28;20433;-66
2022/08/15 00:51:34;;;;;;;8.00;3.37;;;;;;;26.73;38.82;96456.19;5029753;28;20912;-67
2022/08/15 00:54:15;;;;;;;3.03;2.80;;;;;;;26.75;38.73;96458.63;5030125;28;20495;-67
2022/08/15 00:56:50;;;;;;;5.03;3.70;;;;;;;26.74;38.92;96473.13;5032962;28;21022;-66
2022/08/15 00:59:20;;;;;;;3.50;3.20;;;;;;;26.74;39.01;96468.56;5032556;28;20441;-66
2022/08/15 01:01:46;;;;;;;4.77;3.53;;;;;;;26.75;38.94;96466.69;5033436;28;20906;-66
2022/08/15 01:04:13;;;;;;;5.43;3.90;;;;;;;26.74;38.90;96457.81;5033972;28;20481;-67
2022/08/15 01:06:39;;;;;;;3.90;3.57;;;;;;;26.79;39.16;96462.38;5031899;28;20422;-67
2022/08/15 01:09:06;;;;;;;6.77;4.20;;;;;;;26.85;38.92;96449.72;5033985;28;20453;-68
2022/08/15 01:11:37;;;;;;;5.17;3.40;;;;;;;26.86;38.82;96446.78;5038589;28;20192;-65
2022/08/15 01:14:06;;;;;;;3.87;3.43;;;;;;;26.86;38.86;96459.41;5034279;28;20512;-66
2022/08/15 01:16:33;;;;;;;4.23;3.83;;;;;;;26.77;39.02;96459.94;5028226;28;20427;-66
2022/08/15 01:18:59;;;;;;;3.67;3.47;;;;;;;26.69;39.32;96463.22;5028966;28;20967;-66
2022/08/15 01:21:38;;;;;;;3.37;3.17;;;;;;;26.56;39.83;96478.03;5040185;28;20445;-66
2022/08/15 01:24:30;;;;;;;4.70;3.83;;;;;;;26.65;39.80;96479.06;5037975;28;20642;-68
2022/08/15 01:26:55;;;;;;;4.70;3.50;;;;;;;26.68;39.72;96469.66;5032460;28;20422;-66
2022/08/15 01:29:21;;;;;;;4.93;3.50;;;;;;;26.68;39.46;96466.97;5039588;28;20858;-67
2022/08/15 01:31:47;;;;;;;5.90;3.20;;;;;;;26.65;39.75;96468.31;5033958;28;20226;-67
2022/08/15 01:34:13;;;;;;;3.50;3.20;;;;;;;26.68;39.83;96472.34;5032144;28;20203;-68
2022/08/15 01:36:38;;;;;;;3.63;3.33;;;;;;;26.65;39.67;96467.53;5031511;28;20438;-67
2022/08/15 01:39:16;;;;;;;5.40;3.60;;;;;;;26.64;40.13;96471.28;5032377;28;20187;-68
2022/08/15 01:41:57;;;;;;;3.70;3.40;;;;;;;26.52;40.61;96467.03;5039067;28;20183;-66
2022/08/15 01:44:32;;;;;;;8.03;3.60;;;;;;;26.46;41.27;96468.13;5033569;28;20434;-67
2022/08/15 01:47:10;;;;;;;5.87;3.83;;;;;;;26.34;41.78;96468.41;5032843;28;20949;-67
2022/08/15 01:49:49;;;;;;;6.00;3.63;;;;;;;26.21;42.02;96480.50;5025089;28;20535;-66
2022/08/15 01:52:15;;;;;;;6.23;3.60;;;;;;;26.21;42.30;96479.72;5030163;28;20480;-66
2022/08/15 01:54:41;;;;;;;5.80;3.43;;;;;;;26.13;43.05;96483.75;5032183;28;20450;-65
2022/08/15 01:57:08;;;;;;;5.33;3.80;;;;;;;25.94;43.38;96486.16;5034515;28;20422;-66
2022/08/15 01:59:33;;;;;;;3.83;3.10;;;;;;;25.88;43.66;96485.34;5032712;28;20254;-66
2022/08/15 02:02:06;;;;;;;3.97;3.57;;;;;;;25.92;43.43;96481.06;5033482;28;20458;-66
2022/08/15 02:04:35;;;;;;;4.90;3.03;;;;;;;26.04;43.37;96474.59;5032033;28;20190;-66
2022/08/15 02:07:10;;;;;;;4.03;3.20;;;;;;;25.99;43.43;96461.19;5031174;28;20431;-67
2022/08/15 02:09:36;;;;;;;4.00;3.60;;;;;;;26.06;43.45;96467.09;5032239;28;20442;-67
2022/08/15 02:12:08;;;;;;;3.80;3.03;;;;;;;26.08;43.27;96470.31;5031623;28;20430;-66
2022/08/15 02:14:35;;;;;;;6.83;2.90;;;;;;;25.92;44.24;96473.00;5030807;28;20466;-67
2022/08/15 02:17:02;;;;;;;11.10;3.60;;;;;;;26.00;43.88;96473.53;5032463;28;20423;-67
2022/08/15 02:19:28;;;;;;;7.43;3.33;;;;;;;26.05;43.62;96454.75;5030155;28;20442;-66
2022/08/15 02:21:53;;;;;;;8.40;3.20;;;;;;;26.08;43.38;96454.22;5033645;28;20427;-67
2022/08/15 02:24:23;;;;;;;4.80;3.10;;;;;;;26.11;43.33;96459.03;5031270;28;20551;-66
2022/08/15 02:26:50;;;;;;;5.47;3.23;;;;;;;26.17;43.26;96457.97;5032256;28;20184;-67
2022/08/15 02:29:16;;;;;;;5.37;3.40;;;;;;;26.18;43.58;96462.28;5036781;28;20455;-67
2022/08/15 02:31:42;;;;;;;4.97;3.40;;;;;;;26.15;43.51;96464.69;5032779;28;20468;-67
2022/08/15 02:34:10;;;;;;;8.43;3.50;;;;;;;26.16;43.38;96458.22;5032552;28;20207;-68
2022/08/15 02:36:37;;;;;;;6.30;3.13;;;;;;;26.16;43.43;96460.91;5026992;28;20443;-67
2022/08/15 02:39:05;;;;;;;4.10;3.40;;;;;;;26.18;43.45;96451.53;5032468;28;20422;-67
2022/08/15 02:41:38;;;;;;;7.77;3.20;;;;;;;26.21;43.33;96458.25;5034427;28;20414;-68
2022/08/15 02:44:04;;;;;;;4.60;3.47;;;;;;;26.11;43.69;96471.69;5032719;28;21109;-66
2022/08/15 02:46:30;;;;;;;6.60;3.00;;;;;;;26.01;44.14;96480.50;5025867;28;20989;-67
2022/08/15 02:48:58;;;;;;;5.97;3.10;;;;;;;26.01;43.79;96475.97;5014836;28;20427;-68
2022/08/15 02:51:25;;;;;;;5.17;3.23;;;;;;;26.03;44.10;96473.78;5024705;28;20188;-67
2022/08/15 02:53:52;;;;;;;4.40;3.20;;;;;;;26.00;44.46;96473.53;5031793;28;20459;-68
2022/08/15 02:56:22;;;;;;;4.73;3.23;;;;;;;25.92;44.74;96473.00;5031682;28;20869;-67
2022/08/15 02:58:48;;;;;;;4.03;3.03;;;;;;;25.91;44.50;96470.56;5032184;28;20426;-66
2022/08/15 03:01:14;;;;;;;3.30;3.00;;;;;;;25.88;44.68;96482.66;5031852;28;20450;-67
2022/08/15 03:03:42;;;;;;;3.60;2.87;;;;;;;25.87;44.79;96478.38;5030062;28;20833;-68
2022/08/15 03:06:10;;;;;;;4.63;3.40;;;;;;;25.95;44.36;96478.91;5031186;28;20571;-68
2022/08/15 03:08:37;;;;;;;6.13;3.20;;;;;;;25.66;45.49;96479.44;5030423;28;20996;-68
2022/08/15 03:11:14;;;;;;;3.50;3.03;;;;;;;25.77;45.03;96478.38;5026062;28;20463;-67
2022/08/15 03:13:40;;;;;;;3.77;3.37;;;;;;;25.74;45.25;96482.41;5018191;28;20504;-68
2022/08/15 03:16:09;;;;;;;3.23;2.90;;;;;;;25.80;45.03;96477.03;5047569;28;20422;-67
2022/08/15 03:18:36;;;;;;;3.80;3.10;;;;;;;25.87;45.17;96481.03;5044273;28;20183;-68
2022/08/15 03:21:05;;;;;;;3.23;2.93;;;;;;;25.85;44.96;96479.72;5034762;28;20512;-67
2022/08/15 03:23:32;;;;;;;9.73;3.17;;;;;;;25.83;45.36;96482.69;5027217;28;20449;-68
2022/08/15 03:25:59;;;;;;;6.90;3.00;;;;;;;25.79;45.13;96486.97;5042729;28;20434;-67
2022/08/15 03:28:28;;;;;;;3.40;2.77;;;;;;;25.66;45.98;96482.13;5037261;28;20440;-68
2022/08/15 03:30:55;;;;;;;3.00;2.70;;;;;;;25.64;46.12;96493.13;5040376;28;20515;-67
2022/08/15 03:33:21;;;;;;;3.40;3.10;;;;;;;25.56;46.37;96490.97;5047541;28;20423;-67
2022/08/15 03:35:48;;;;;;;4.40;3.00;;;;;;;25.67;46.19;96492.56;5045763;28;20440;-67
2022/08/15 03:38:15;;;;;;;5.20;2.90;;;;;;;25.57;46.57;96482.66;5030601;28;20279;-67
2022/08/15 03:40:43;;;;;;;2.97;2.70;;;;;;;25.47;47.49;96488.00;5037200;28;20560;-66
2022/08/15 03:43:12;;;;;;;4.57;3.00;;;;;;;25.47;47.69;96487.19;5035385;28;20442;-67
2022/08/15 03:45:38;;;;;;;10.53;3.20;;;;;;;25.44;47.92;96475.13;5046335;28;20434;-66
2022/08/15 03:48:03;;;;;;;3.67;3.23;;;;;;;25.37;48.20;96479.91;5035165;28;20901;-67
2022/08/15 03:50:30;;;;;;;5.47;3.13;;;;;;;25.25;48.45;96486.31;5035502;28;20512;-67
2022/08/15 03:52:58;;;;;;;3.33;3.03;;;;;;;25.26;48.24;96485.25;5022718;28;20710;-68
2022/08/15 03:55:25;;;;;;;5.53;3.47;;;;;;;25.30;48.53;96489.03;5042427;28;20483;-67
2022/08/15 03:57:52;;;;;;;3.50;2.60;;;;;;;25.39;47.98;96491.16;5030856;28;20491;-68
2022/08/15 04:00:20;;;;;;;3.43;2.93;;;;;;;25.39;48.43;96483.13;5036055;28;20449;-68
2022/08/15 04:02:46;;;;;;;2.87;2.57;;;;;;;25.36;48.94;96481.78;5038813;28;20481;-68
2022/08/15 04:05:11;;;;;;;5.20;3.03;;;;;;;25.41;48.83;96484.50;5040102;28;20458;-67
2022/08/15 04:07:37;;;;;;;3.73;3.10;;;;;;;25.41;48.56;96483.69;5036469;28;20183;-68
2022/08/15 04:10:15;;;;;;;6.00;2.60;;;;;;;25.36;48.92;96483.66;5045790;28;20202;-66
2022/08/15 04:12:42;;;;;;;3.50;2.67;;;;;;;25.39;48.20;96483.91;5036376;28;20260;-67
2022/08/15 04:15:12;;;;;;;2.60;2.40;;;;;;;25.25;48.71;96485.53;5033219;28;20461;-68
2022/08/15 04:17:38;;;;;;;3.83;2.60;;;;;;;25.26;48.26;96487.94;5022516;28;20435;-66
2022/08/15 04:20:05;;;;;;;7.90;2.50;;;;;;;25.30;48.16;96483.66;5013365;28;20797;-68
2022/08/15 04:22:38;;;;;;;3.50;2.57;;;;;;;25.36;47.97;96479.09;5027000;28;20654;-69
2022/08/15 04:25:09;;;;;;;8.20;2.30;;;;;;;25.41;47.57;96481.03;5022341;28;20422;-68
2022/08/15 04:27:35;;;;;;;2.87;2.57;;;;;;;25.18;47.49;96501.84;5027410;28;20418;-68
2022/08/15 04:30:01;;;;;;;5.33;2.70;;;;;;;24.65;48.64;96505.34;5026597;28;20850;-69
2022/08/15 04:32:26;;;;;;;5.80;2.60;;;;;;;24.73;47.92;96501.41;5033028;28;20205;-68
2022/08/15 04:34:53;;;;;;;3.30;2.27;;;;;;;24.80;48.24;96498.50;5034468;28;20219;-68
2022/08/15 04:37:19;;;;;;;4.97;2.50;;;;;;;24.81;48.18;96502.78;5014035;28;20206;-69
2022/08/15 04:39:44;;;;;;;3.27;2.70;;;;;;;24.74;48.56;96502.19;5023632;28;20450;-68
2022/08/15 04:42:10;;;;;;;4.53;2.70;;;;;;;24.78;48.64;96495.28;5029012;28;20235;-69
2022/08/15 04:44:37;;;;;;;3.23;2.93;;;;;;;24.60;49.21;96502.63;5036322;28;20561;-68
2022/08/15 04:47:02;;;;;;;3.60;2.50;;;;;;;24.46;49.86;96512.19;5022640;28;20442;-68
2022/08/15 04:49:28;;;;;;;6.63;2.53;;;;;;;24.49;49.44;96507.16;5024272;28;20454;-70
2022/08/15 04:51:53;;;;;;;2.60;2.40;;;;;;;24.43;49.95;96504.69;5026864;28;20188;-69
2022/08/15 04:54:19;;;;;;;2.60;2.40;;;;;;;24.57;49.61;96516.56;5042005;28;20258;-68
2022/08/15 04:56:45;;;;;;;7.03;3.00;;;;;;;24.42;49.88;96522.63;5034675;28;20262;-69
2022/08/15 04:59:10;;;;;;;2.93;2.70;;;;;;;24.58;49.33;96506.66;5042448;28;20716;-68
2022/08/15 05:01:36;;;;;;;4.50;2.70;;;;;;;24.52;49.32;96511.19;5037411;28;20182;-69
2022/08/15 05:04:01;;;;;;;2.93;2.73;;;;;;;24.42;49.86;96519.94;5040276;28;20202;-68
2022/08/15 05:06:26;;;;;;;3.70;2.40;;;;;;;24.53;49.85;96523.50;5043815;28;20206;-68
2022/08/15 05:08:52;;;;;;;3.73;2.60;;;;;;;24.52;49.37;96516.53;5020779;28;20770;-68
2022/08/15 05:11:19;;;;;;;8.33;2.53;;;;;;;24.62;49.66;96516.59;5027722;28;20215;-68
2022/08/15 05:13:44;;;;;;;3.87;2.43;;;;;;;24.59;49.43;96517.09;5015304;28;20279;-68
2022/08/15 05:16:10;;;;;;;4.80;2.80;;;;;;;24.61;49.20;96514.97;5032427;28;20991;-67
2022/08/15 05:18:38;;;;;;;4.90;2.70;;;;;;;24.56;49.12;96516.81;5017640;28;20195;-69
2022/08/15 05:21:04;;;;;;;6.00;2.63;;;;;;;24.39;49.69;96523.13;5014681;28;20208;-68
2022/08/15 05:23:30;;;;;;;3.23;2.40;;;;;;;24.36;49.30;96526.34;5021910;28;20426;-68
2022/08/15 05:25:58;;;;;;;2.63;2.20;;;;;;;24.48;49.04;96521.59;5027537;28;20917;-68
2022/08/15 05:28:24;;;;;;;2.33;2.13;;;;;;;24.41;49.53;96514.84;5026083;28;20467;-67
2022/08/15 05:30:51;;;;;;;2.30;2.20;;;;;;;24.22;50.19;96512.59;5021676;28;20449;-68
2022/08/15 05:33:23;;;;;;;2.70;2.03;;;;;;;24.36;49.27;96511.06;5033047;28;20419;-68
2022/08/15 05:35:56;;;;;;;4.73;2.00;;;;;;;24.27;50.58;96514.47;5033294;28;20422;-68
2022/08/15 05:38:46;;;;;;;3.60;2.40;;;;;;;24.05;50.90;96512.72;5019474;28;20424;-69
2022/08/15 05:41:36;;;;;;;4.50;2.37;;;;;;;23.90;51.81;96521.41;5034191;28;20475;-68
2022/08/15 05:44:28;;;;;;;2.70;2.17;;;;;;;23.85;52.14;96513.34;5031469;28;20495;-69
2022/08/15 05:47:00;;;;;;;6.47;2.10;;;;;;;23.96;51.65;96509.72;5010642;28;20423;-69
2022/08/15 05:49:47;;;;;;;2.23;2.00;;;;;;;24.04;51.76;96511.94;5035674;28;20452;-68
2022/08/15 05:52:42;;;;;;;3.07;2.63;;;;;;;23.97;51.62;96511.31;5033017;28;20511;-69
2022/08/15 05:55:10;;;;;;;5.53;2.33;;;;;;;24.00;51.47;96497.44;5047777;28;20461;-68
2022/08/15 05:57:52;;;;;;;3.53;2.20;;;;;;;23.91;51.49;96496.28;5045008;28;20913;-70
2022/08/15 06:00:17;;;;;;;3.57;2.10;;;;;;;23.90;50.99;96486.63;5050409;28;20822;-68
2022/08/15 06:02:48;;;;;;;2.97;1.93;;;;;;;24.01;51.12;96484.84;5038172;28;20419;-69
2022/08/15 06:05:22;;;;;;;2.73;2.53;;;;;;;24.10;50.70;96478.00;5036780;28;20618;-68
2022/08/15 06:07:49;;;;;;;2.97;2.40;;;;;;;24.23;50.89;96476.72;5021434;28;20423;-68
2022/08/15 06:10:27;;;;;;;2.60;2.13;;;;;;;24.18;50.95;96479.38;5040476;28;20534;-69
2022/08/15 06:13:33;;;;;;;2.30;2.10;;;;;;;24.27;50.63;96488.53;5023860;28;20427;-68
2022/08/15 06:16:18;;;;;;;4.07;2.33;;;;;;;24.32;50.35;96501.16;5034739;28;20829;-68
2022/08/15 06:18:45;;;;;;;7.20;2.30;;;;;;;24.39;50.11;96501.72;5018669;28;21045;-68
2022/08/15 06:21:20;;;;;;;5.97;2.23;;;;;;;24.43;49.74;96507.38;5020053;28;20970;-69
2022/08/15 06:23:59;;;;;;;3.40;2.33;;;;;;;24.32;49.58;96512.66;5029594;28;20418;-68
2022/08/15 06:26:46;;;;;;;4.67;2.53;;;;;;;24.23;50.10;96519.53;5035745;28;20421;-68
2022/08/15 06:29:30;;;;;;;3.90;2.50;;;;;;;24.34;49.92;96510.53;5024448;28;20423;-68
2022/08/15 06:32:07;;;;;;;2.70;2.10;;;;;;;24.34;50.17;96515.09;5040330;28;20448;-69
2022/08/15 06:34:44;;;;;;;4.30;2.33;;;;;;;24.36;49.70;96515.63;5025293;28;21009;-69
2022/08/15 06:37:15;;;;;;;2.50;2.23;;;;;;;24.29;49.95;96518.53;5014618;28;20427;-69
2022/08/15 06:40:14;;;;;;;9.60;2.37;;;;;;;24.29;49.80;96526.56;5018849;28;20458;-69
2022/08/15 06:42:41;;;;;;;2.53;1.83;;;;;;;24.37;49.24;96527.97;5035910;28;20417;-68
2022/08/15 06:45:23;;;;;;;6.37;2.43;;;;;;;24.36;49.31;96529.03;5025526;28;20455;-69
2022/08/15 06:47:53;;;;;;;4.10;2.00;;;;;;;24.37;49.13;96527.97;5008562;28;20875;-69
2022/08/15 06:50:22;;;;;;;2.80;2.10;;;;;;;24.38;48.99;96533.03;5037187;28;20443;-68
2022/08/15 06:52:53;;;;;;;2.73;2.20;;;;;;;24.42;48.99;96525.31;5016244;28;20820;-70
2022/08/15 06:55:20;;;;;;;3.83;2.27;;;;;;;24.46;48.70;96534.44;5045217;28;20463;-68
2022/08/15 06:58:21;;;;;;;8.13;2.30;;;;;;;24.33;48.98;96541.03;5011360;28;20488;-69
2022/08/15 07:00:51;;;;;;;4.37;2.07;;;;;;;24.53;48.58;96534.22;5023570;28;20458;-68
2022/08/15 07:03:35;;;;;;;3.33;2.20;;;;;;;24.57;48.36;96529.97;5042607;28;20505;-67
2022/08/15 07:06:01;;;;;;;7.80;2.20;;;;;;;24.66;48.52;96527.56;5044814;28;20472;-69
2022/08/15 07:08:33;;;;;;;7.17;2.50;;;;;;;24.96;47.65;96526.94;5025886;28;20428;-69
2022/08/15 07:11:17;;;;;;;6.10;2.80;;;;;;;25.22;47.19;96529.72;5046422;28;20450;-67
2022/08/15 07:13:55;;;;;;;3.00;2.17;;;;;;;25.48;46.40;96537.88;5024021;28;20433;-68
2022/08/15 07:16:27;;;;;;;2.33;2.13;;;;;;;25.74;45.94;96529.88;5040480;28;20427;-67
2022/08/15 07:18:57;;;;;;;6.90;2.30;;;;;;;25.92;45.11;96534.72;5037579;28;20428;-68
2022/08/15 07:21:25;;;;;;;2.17;2.00;;;;;;;25.96;44.37;96529.63;5015567;28;20419;-69
2022/08/15 07:24:05;;;;;;;3.43;2.23;;;;;;;25.76;45.34;96530.41;5022521;28;20418;-69
2022/08/15 07:26:46;;;;;;;3.47;1.87;;;;;;;25.49;45.49;96528.75;5031951;28;20483;-68
2022/08/15 07:29:18;;;;;;;2.80;2.00;;;;;;;25.72;44.96;96522.09;5018971;28;20464;-70
2022/08/15 07:31:44;;;;;;;4.37;2.37;;;;;;;25.87;44.48;96526.66;5019242;28;20714;-69
2022/08/15 07:34:22;;;;;;;3.13;2.00;;;;;;;26.29;43.92;96526.69;5028632;28;20467;-70
2022/08/15 07:36:56;;;;;;;3.20;2.27;;;;;;;26.42;42.73;96534.19;5017413;28;20198;-70
2022/08/15 07:39:37;;;;;;;3.97;3.23;;;;;;;26.71;42.29;96522.88;5036385;28;20476;-69
2022/08/15 07:42:10;;;;;;;5.23;2.00;;;;;;;26.90;42.12;96533.03;5029383;28;20449;-69
2022/08/15 07:44:35;;;;;;;5.10;2.20;;;;;;;26.83;41.80;96528.78;5035034;28;20445;-70
2022/08/15 07:47:09;;;;;;;2.80;2.33;;;;;;;26.87;41.98;96526.31;5031168;28;20562;-71
2022/08/15 07:49:37;;;;;;;3.20;2.43;;;;;;;26.79;42.15;96543.81;5034642;28;20234;-71
2022/08/15 07:52:15;;;;;;;3.60;2.40;;;;;;;26.65;42.07;96542.75;5021365;28;20949;-70
2022/08/15 07:54:50;;;;;;;3.63;2.50;;;;;;;26.63;42.53;96543.03;5020237;28;20457;-70
2022/08/15 07:57:33;;;;;;;2.93;2.13;;;;;;;26.57;42.67;96546.00;5023465;28;20804;-70
2022/08/15 08:00:10;;;;;;;5.90;2.30;;;;;;;26.44;43.20;96542.78;5044961;28;20441;-69
2022/08/15 08:02:51;;;;;;;6.40;2.37;;;;;;;26.61;42.61;96545.19;5025716;28;20423;-70
2022/08/15 08:05:20;;;;;;;2.10;1.63;;;;;;;26.67;42.05;96546.75;5033662;28;20901;-68
2022/08/15 08:07:48;;;;;;;3.40;1.83;;;;;;;26.63;42.22;96556.47;5025951;28;20436;-69
2022/08/15 08:10:32;;;;;;;1.80;1.47;;;;;;;26.85;41.72;96557.22;5035798;28;20445;-71
2022/08/15 08:13:02;;;;;;;4.30;1.77;;;;;;;27.10;41.37;96550.97;5029213;28;21025;-69
2022/08/15 08:15:57;;;;;;;3.40;1.80;;;;;;;27.33;40.56;96546.84;5038808;28;20999;-69
2022/08/15 08:18:45;;;;;;;2.13;1.40;;;;;;;27.62;40.32;96554.22;5018764;28;20443;-70
2022/08/15 08:21:15;;;;;;;2.07;1.60;;;;;;;27.86;39.35;96548.16;5024591;28;20446;-71
2022/08/15 08:23:46;;;;;;;1.63;1.50;;;;;;;28.08;39.21;96549.63;5036280;28;20418;-70
2022/08/15 08:26:30;;;;;;;4.23;1.90;;;;;;;28.38;38.53;96545.06;5008039;28;20927;-69
2022/08/15 08:29:07;;;;;;;4.37;1.80;;;;;;;28.67;37.96;96547.75;5038741;28;20504;-70
2022/08/15 08:31:41;;;;;;;2.43;1.73;;;;;;;28.82;37.44;96533.34;5030538;28;20835;-69
2022/08/15 08:34:12;;;;;;;3.83;1.60;;;;;;;29.04;36.85;96537.41;5034779;28;20556;-69
2022/08/15 08:37:02;;;;;;;4.70;1.40;;;;;;;29.08;36.94;96530.34;5025263;28;20435;-69
2022/08/15 08:39:41;;;;;;;2.00;1.70;;;;;;;29.31;36.37;96531.38;5033759;28;20481;-70
2022/08/15 08:42:30;;;;;;;1.90;1.80;;;;;;;29.54;35.74;96529.75;5026557;28;20427;-69
2022/08/15 08:45:10;;;;;;;1.27;1.17;;;;;;;29.81;35.62;96536.38;5015879;28;20427;-69
2022/08/15 08:47:39;;;;;;;2.20;1.53;;;;;;;30.01;34.54;96547.97;5019933;28;20809;-70
2022/08/15 08:50:44;;;;;;;1.87;1.20;;;;;;;29.85;34.11;96544.69;5029797;28;20447;-69
2022/08/15 08:53:20;;;;;;;1.30;1.20;;;;;;;29.49;34.70;96543.31;5035627;28;20437;-71
2022/08/15 08:56:05;;;;;;;2.90;1.40;;;;;;;29.51;34.84;96545.75;5023294;28;20458;-70
2022/08/15 08:58:38;;;;;;;1.43;1.33;;;;;;;29.74;34.23;96549.44;5033025;28;20421;-70
2022/08/15 09:01:06;;;;;;;1.70;1.60;;;;;;;30.09;33.65;96551.91;5038112;28;20456;-71
2022/08/15 09:03:46;;;;;;;1.40;1.30;;;;;;;30.29;33.02;96542.69;5033477;28;20422;-69
2022/08/15 09:06:15;;;;;;;4.80;1.63;;;;;;;30.59;32.64;96545.97;5042283;28;20430;-68
2022/08/15 09:08:51;;;;;;;4.53;1.70;;;;;;;30.47;32.67;96547.22;5043857;28;20454;-69
2022/08/15 09:11:26;;;;;;;6.53;1.20;;;;;;;30.72;32.02;96550.59;5045876;28;20465;-68
2022/08/15 09:13:54;;;;;;;1.50;1.20;;;;;;;30.68;32.36;96546.88;5048519;28;20479;-70
2022/08/15 09:16:30;;;;;;;1.50;1.40;;;;;;;30.36;32.36;96547.69;5043815;28;20569;-69
2022/08/15 09:19:16;;;;;;;1.57;1.20;;;;;;;30.59;32.37;96548.69;5047827;28;20416;-69
2022/08/15 09:21:43;;;;;;;2.70;1.50;;;;;;;29.94;32.05;96542.13;5033303;28;20802;-69
2022/08/15 09:24:09;;;;;;;1.93;1.47;;;;;;;30.11;32.62;96538.91;5045566;28;20449;-70
2022/08/15 09:26:53;;;;;;;1.50;1.37;;;;;;;30.33;32.12;96535.59;5027406;28;20484;-70
2022/08/15 09:29:33;;;;;;;1.60;1.50;;;;;;;30.59;31.66;96535.16;5045572;28;20302;-68
2022/08/15 09:32:10;;;;;;;1.40;1.30;;;;;;;30.76;31.61;96529.94;5045511;28;20421;-69
2022/08/15 09:35:14;;;;;;;2.53;1.60;;;;;;;30.74;31.17;96524.06;5043660;28;20905;-70
2022/08/15 09:37:45;;;;;;;1.60;1.40;;;;;;;30.85;31.10;96537.38;5028581;28;20439;-71
2022/08/15 09:40:22;;;;;;;1.40;1.30;;;;;;;31.11;30.45;96534.94;5047203;28;20495;-70
2022/08/15 09:43:23;;;;;;;1.83;1.40;;;;;;;31.45;30.11;96524.81;5040480;28;20422;-69
2022/08/15 09:45:58;;;;;;;1.77;1.60;;;;;;;31.62;29.84;96513.31;5044085;28;20805;-69
2022/08/15 09:48:36;;;;;;;2.47;1.30;;;;;;;31.96;29.55;96529.06;5037870;28;20499;-68
2022/08/15 09:51:20;;;;;;;1.60;1.47;;;;;;;32.35;28.72;96526.00;5044811;28;20477;-69
2022/08/15 09:54:01;;;;;;;1.97;1.43;;;;;;;32.61;28.64;96518.78;5040571;28;20909;-69
2022/08/15 09:56:30;;;;;;;2.20;1.60;;;;;;;32.44;28.51;96524.13;5039840;28;20425;-69
2022/08/15 09:59:04;;;;;;;1.80;1.27;;;;;;;32.26;28.36;96515.88;5029556;28;20835;-69
2022/08/15 10:01:31;;;;;;;1.87;1.67;;;;;;;32.01;28.76;96520.81;5032242;28;20425;-69
2022/08/15 10:04:08;;;;;;;1.60;1.50;;;;;;;31.80;29.21;96523.22;5042203;28;20434;-70
2022/08/15 10:07:02;;;;;;;1.87;1.40;;;;;;;32.01;29.55;96511.88;5039572;28;20437;-69
2022/08/15 10:09:27;;;;;;;2.43;1.30;;;;;;;32.28;28.54;96510.97;5040682;28;20491;-70
2022/08/15 10:11:58;;;;;;;1.70;1.60;;;;;;;32.36;28.33;96514.81;5046508;28;20410;-70
2022/08/15 10:14:29;;;;;;;1.33;1.23;;;;;;;32.27;28.50;96509.34;5046366;28;20218;-69
2022/08/15 10:17:04;;;;;;;2.37;1.50;;;;;;;32.14;29.08;96507.50;5046177;28;20426;-70
2022/08/15 10:19:34;;;;;;;1.60;1.50;;;;;;;32.04;29.02;96508.56;5044440;28;21164;-69
2022/08/15 10:22:20;;;;;;;2.37;1.53;;;;;;;32.41;28.88;96509.28;5031991;28;20466;-71
2022/08/15 10:24:45;;;;;;;6.63;1.50;;;;;;;32.69;28.33;96500.13;5053201;28;20739;-69
2022/08/15 10:27:20;;;;;;;2.60;1.67;;;;;;;32.88;27.58;96489.88;5062277;28;20479;-69
2022/08/15 10:29:47;;;;;;;2.23;1.57;;;;;;;32.69;27.85;96494.72;5036676;28;20258;-70
2022/08/15 10:32:35;;;;;;;2.63;1.53;;;;;;;32.27;28.25;96487.66;5046900;28;20425;-70
2022/08/15 10:35:28;;;;;;;2.00;1.40;;;;;;;32.02;28.48;96498.03;5044159;28;20829;-70
2022/08/15 10:37:59;;;;;;;2.90;1.50;;;;;;;31.76;28.99;96492.44;5033321;28;20864;-69
2022/08/15 10:40:36;;;;;;;3.27;1.93;;;;;;;31.67;29.21;96492.34;5047235;28;20449;-70
2022/08/15 10:43:08;;;;;;;3.93;1.80;;;;;;;31.49;28.96;96490.63;5040105;28;20449;-70
2022/08/15 10:46:11;;;;;;;1.57;1.47;;;;;;;31.61;29.75;96493.59;5035394;28;20425;-70
2022/08/15 10:49:01;;;;;;;2.20;1.73;;;;;;;32.09;29.59;96486.75;5045602;28;20504;-70
2022/08/15 10:51:46;;;;;;;1.73;1.60;;;;;;;32.37;29.14;96488.53;5022274;28;20570;-70
2022/08/15 10:54:45;;;;;;;1.77;1.50;;;;;;;32.77;28.98;96488.50;5044946;28;20461;-69
2022/08/15 10:57:15;;;;;;;3.40;1.67;;;;;;;32.81;26.79;96494.94;5037021;28;20429;-70
2022/08/15 10:59:48;;;;;;;1.67;1.57;;;;;;;32.89;26.90;96477.88;5051140;28;20446;-70
2022/08/15 11:02:39;;;;;;;2.50;1.60;;;;;;;32.93;26.43;96476.16;5042965;28;20852;-70
2022/08/15 11:05:11;;;;;;;2.17;1.97;;;;;;;32.76;26.46;96466.03;5028981;28;20421;-70
2022/08/15 11:07:40;;;;;;;2.50;1.40;;;;;;;32.59;26.41;96472.19;5042926;28;20433;-70
2022/08/15 11:10:11;;;;;;;1.80;1.70;;;;;;;32.41;26.34;96475.94;5047659;28;20980;-68
2022/08/15 11:12:42;;;;;;;1.57;1.47;;;;;;;32.15;26.83;96474.69;5043998;28;20421;-69
2022/08/15 11:15:17;;;;;;;2.00;1.80;;;;;;;32.04;27.88;96480.66;5040378;28;20536;-70
2022/08/15 11:17:46;;;;;;;1.83;1.73;;;;;;;32.20;28.32;96476.47;5043656;28;20815;-69
2022/08/15 11:20:19;;;;;;;1.70;1.60;;;;;;;32.34;28.70;96473.69;5039363;28;20439;-70
2022/08/15 11:22:47;;;;;;;1.77;1.50;;;;;;;32.42;28.58;96475.66;5027059;28;20872;-69
2022/08/15 11:25:19;;;;;;;7.63;1.77;;;;;;;32.79;27.39;96472.72;5033071;28;20521;-69
2022/08/15 11:27:58;;;;;;;1.60;1.50;;;;;;;33.16;26.88;96473.31;5044654;28;20505;-69
2022/08/15 11:30:25;;;;;;;2.83;1.90;;;;;;;33.26;26.55;96472.22;5035404;28;20481;-69
2022/08/15 11:32:52;;;;;;;1.50;1.40;;;;;;;33.28;26.66;96469.97;5049342;28;20512;-69
2022/08/15 11:35:28;;;;;;;4.93;1.87;;;;;;;33.04;26.20;96454.13;5044686;28;20480;-70
2022/08/15 11:37:56;;;;;;;3.00;1.60;;;;;;;33.16;26.63;96454.31;5042327;28;20433;-69
2022/08/15 11:40:24;;;;;;;1.77;1.50;;;;;;;32.99;26.70;96451.59;5046122;28;20478;-70
2022/08/15 11:42:50;;;;;;;1.93;1.73;;;;;;;32.99;26.48;96451.59;5032902;28;20484;-69
2022/08/15 11:45:26;;;;;;;1.90;1.50;;;;;;;33.00;26.56;96450.47;5046754;28;20426;-69
2022/08/15 11:47:55;;;;;;;3.23;2.03;;;;;;;32.80;26.78;96452.66;5030570;28;20477;-71
2022/08/15 11:50:30;;;;;;;1.90;1.40;;;;;;;32.54;26.69;96453.34;5045078;28;20908;-68
2022/08/15 11:53:01;;;;;;;2.37;1.90;;;;;;;32.49;27.00;96450.78;5038542;28;20425;-69
2022/08/15 11:55:26;;;;;;;3.87;1.70;;;;;;;32.57;26.75;96458.16;5026427;28;20458;-69
2022/08/15 11:57:58;;;;;;;4.60;1.73;;;;;;;32.58;26.98;96453.50;5038570;28;20433;-69
2022/08/15 12:00:41;;;;;;;4.17;1.60;;;;;;;32.50;26.99;96444.25;5034374;28;20211;-68
2022/08/15 12:03:23;;;;;;;1.70;1.57;;;;;;;32.53;27.52;96450.97;5037278;28;20790;-70
2022/08/15 12:05:51;;;;;;;2.17;1.97;;;;;;;32.80;27.22;96449.94;5045517;28;20421;-71